sensor_id;sensor_type;location;lat;lon;timestamp;P1;durP1;ratioP1;P2;durP2;ratioP2
1719;SDS011;857;52.872;9.692;2022-07-10T00:01:56;3.90;;;1.00;;
1719;SDS011;857;52.872;9.692;2022-07-10T00:04:24;4.00;;;1.23;;
1719;SDS011;857;52.872;9.692;2022-07-10T00:06:51;2.13;;;1.13;;
1719;SDS011;857;52.872;9.692;2022-07-10T00:09:21;4.07;;;1.23;;
1719;SDS011;857;52.872;9.692;2022-07-10T00:11:49;2.47;;;1.00;;
1719;SDS011;857;52.872;9.692;2022-07-10T00:14:17;6.57;;;1.40;;
1719;SDS011;857;52.872;9.692;2022-07-10T00:16:45;2.53;;;0.90;;
1719;SDS011;857;52.872;9.692;2022-07-10T00:19:14;2.23;;;1.03;;
1719;SDS011;857;52.872;9.692;2022-07-10T00:21:42;2.33;;;1.40;;
1719;SDS011;857;52.872;9.692;2022-07-10T00:24:10;4.47;;;1.33;;
1719;SDS011;857;52.872;9.692;2022-07-10T00:26:37;3.20;;;1.53;;
1719;SDS011;857;52.872;9.692;2022-07-10T00:29:05;2.50;;;1.10;;
1719;SDS011;857;52.872;9.692;2022-07-10T00:31:34;2.83;;;1.40;;
1719;SDS011;857;52.872;9.692;2022-07-10T00:34:02;2.53;;;1.10;;
1719;SDS011;857;52.872;9.692;2022-07-10T00:36:31;2.33;;;1.40;;
1719;SDS011;857;52.872;9.692;2022-07-10T00:38:58;5.90;;;1.40;;
1719;SDS011;857;52.872;9.692;2022-07-10T00:41:26;2.90;;;1.23;;
1719;SDS011;857;52.872;9.692;2022-07-10T00:43:54;4.27;;;1.20;;
1719;SDS011;857;52.872;9.692;2022-07-10T00:46:23;3.30;;;1.10;;
1719;SDS011;857;52.872;9.692;2022-07-10T00:48:52;2.30;;;1.17;;
1719;SDS011;857;52.872;9.692;2022-07-10T00:51:22;1.20;;;0.67;;
1719;SDS011;857;52.872;9.692;2022-07-10T00:53:52;3.30;;;1.20;;
1719;SDS011;857;52.872;9.692;2022-07-10T00:56:20;2.30;;;1.10;;
1719;SDS011;857;52.872;9.692;2022-07-10T00:58:48;1.83;;;1.20;;
1719;SDS011;857;52.872;9.692;2022-07-10T01:01:16;3.43;;;0.90;;
1719;SDS011;857;52.872;9.692;2022-07-10T01:03:44;3.77;;;1.20;;
1719;SDS011;857;52.872;9.692;2022-07-10T01:06:12;5.10;;;1.80;;
1719;SDS011;857;52.872;9.692;2022-07-10T01:08:40;3.33;;;1.40;;
1719;SDS011;857;52.872;9.692;2022-07-10T01:11:09;4.30;;;1.13;;
1719;SDS011;857;52.872;9.692;2022-07-10T01:13:37;1.07;;;0.83;;
1719;SDS011;857;52.872;9.692;2022-07-10T01:16:05;4.60;;;1.40;;
1719;SDS011;857;52.872;9.692;2022-07-10T01:18:32;1.53;;;0.70;;
1719;SDS011;857;52.872;9.692;2022-07-10T01:21:02;3.00;;;0.90;;
1719;SDS011;857;52.872;9.692;2022-07-10T01:23:29;2.93;;;1.20;;
1719;SDS011;857;52.872;9.692;2022-07-10T01:25:57;5.30;;;1.43;;
1719;SDS011;857;52.872;9.692;2022-07-10T01:28:26;1.07;;;0.80;;
1719;SDS011;857;52.872;9.692;2022-07-10T01:30:54;5.80;;;1.10;;
1719;SDS011;857;52.872;9.692;2022-07-10T01:33:22;5.50;;;1.40;;
1719;SDS011;857;52.872;9.692;2022-07-10T01:35:50;4.00;;;1.00;;
1719;SDS011;857;52.872;9.692;2022-07-10T01:38:19;5.60;;;1.40;;
1719;SDS011;857;52.872;9.692;2022-07-10T01:40:47;4.00;;;1.33;;
1719;SDS011;857;52.872;9.692;2022-07-10T01:43:15;2.83;;;1.03;;
1719;SDS011;857;52.872;9.692;2022-07-10T01:45:42;2.37;;;1.10;;
1719;SDS011;857;52.872;9.692;2022-07-10T01:48:10;1.93;;;0.97;;
1719;SDS011;857;52.872;9.692;2022-07-10T01:50:37;4.83;;;1.57;;
1719;SDS011;857;52.872;9.692;2022-07-10T01:53:05;1.80;;;0.90;;
1719;SDS011;857;52.872;9.692;2022-07-10T01:55:34;3.43;;;1.17;;
1719;SDS011;857;52.872;9.692;2022-07-10T01:58:02;2.00;;;1.07;;
1719;SDS011;857;52.872;9.692;2022-07-10T02:00:30;3.33;;;0.90;;
1719;SDS011;857;52.872;9.692;2022-07-10T02:02:57;1.77;;;1.03;;
1719;SDS011;857;52.872;9.692;2022-07-10T02:05:43;1.40;;;0.70;;
1719;SDS011;857;52.872;9.692;2022-07-10T02:08:10;0.80;;;0.80;;
1719;SDS011;857;52.872;9.692;2022-07-10T02:10:40;2.33;;;1.03;;
1719;SDS011;857;52.872;9.692;2022-07-10T02:13:07;3.80;;;1.23;;
1719;SDS011;857;52.872;9.692;2022-07-10T02:15:35;2.83;;;1.10;;
1719;SDS011;857;52.872;9.692;2022-07-10T02:18:03;1.63;;;0.80;;
1719;SDS011;857;52.872;9.692;2022-07-10T02:20:30;1.97;;;1.00;;
1719;SDS011;857;52.872;9.692;2022-07-10T02:23:00;3.43;;;1.10;;
1719;SDS011;857;52.872;9.692;2022-07-10T02:25:28;3.67;;;1.23;;
1719;SDS011;857;52.872;9.692;2022-07-10T02:27:57;1.20;;;0.80;;
1719;SDS011;857;52.872;9.692;2022-07-10T02:30:25;2.17;;;0.90;;
1719;SDS011;857;52.872;9.692;2022-07-10T02:32:52;2.20;;;1.20;;
1719;SDS011;857;52.872;9.692;2022-07-10T02:35:20;2.30;;;1.10;;
1719;SDS011;857;52.872;9.692;2022-07-10T02:37:48;1.33;;;0.97;;
1719;SDS011;857;52.872;9.692;2022-07-10T02:40:16;1.60;;;1.40;;
1719;SDS011;857;52.872;9.692;2022-07-10T02:42:43;1.53;;;0.70;;
1719;SDS011;857;52.872;9.692;2022-07-10T02:45:12;2.27;;;1.13;;
1719;SDS011;857;52.872;9.692;2022-07-10T02:47:40;1.63;;;0.60;;
1719;SDS011;857;52.872;9.692;2022-07-10T02:50:08;1.20;;;0.80;;
1719;SDS011;857;52.872;9.692;2022-07-10T02:52:36;2.60;;;1.00;;
1719;SDS011;857;52.872;9.692;2022-07-10T02:55:04;1.77;;;0.90;;
1719;SDS011;857;52.872;9.692;2022-07-10T02:57:32;2.50;;;0.93;;
1719;SDS011;857;52.872;9.692;2022-07-10T03:00:00;2.43;;;1.10;;
1719;SDS011;857;52.872;9.692;2022-07-10T03:02:29;0.87;;;0.70;;
1719;SDS011;857;52.872;9.692;2022-07-10T03:04:56;1.00;;;0.90;;
1719;SDS011;857;52.872;9.692;2022-07-10T03:07:24;2.97;;;0.93;;
1719;SDS011;857;52.872;9.692;2022-07-10T03:09:52;2.67;;;0.93;;
1719;SDS011;857;52.872;9.692;2022-07-10T03:12:20;1.83;;;1.00;;
1719;SDS011;857;52.872;9.692;2022-07-10T03:14:47;1.60;;;0.60;;
1719;SDS011;857;52.872;9.692;2022-07-10T03:17:15;3.60;;;0.83;;
1719;SDS011;857;52.872;9.692;2022-07-10T03:19:44;7.00;;;1.10;;
1719;SDS011;857;52.872;9.692;2022-07-10T03:22:12;2.57;;;1.10;;
1719;SDS011;857;52.872;9.692;2022-07-10T03:24:40;2.33;;;1.20;;
1719;SDS011;857;52.872;9.692;2022-07-10T03:27:08;1.47;;;0.90;;
1719;SDS011;857;52.872;9.692;2022-07-10T03:29:36;1.13;;;0.73;;
1719;SDS011;857;52.872;9.692;2022-07-10T03:32:04;1.57;;;0.77;;
1719;SDS011;857;52.872;9.692;2022-07-10T03:34:32;1.40;;;0.70;;
1719;SDS011;857;52.872;9.692;2022-07-10T03:37:01;1.80;;;0.57;;
1719;SDS011;857;52.872;9.692;2022-07-10T03:39:29;2.50;;;0.90;;
1719;SDS011;857;52.872;9.692;2022-07-10T03:41:56;4.37;;;1.43;;
1719;SDS011;857;52.872;9.692;2022-07-10T03:44:25;1.97;;;1.40;;
1719;SDS011;857;52.872;9.692;2022-07-10T03:46:52;6.10;;;1.57;;
1719;SDS011;857;52.872;9.692;2022-07-10T03:49:20;1.50;;;0.60;;
1719;SDS011;857;52.872;9.692;2022-07-10T03:51:48;1.97;;;0.60;;
1719;SDS011;857;52.872;9.692;2022-07-10T03:54:17;0.70;;;0.70;;
1719;SDS011;857;52.872;9.692;2022-07-10T03:56:44;1.13;;;1.00;;
1719;SDS011;857;52.872;9.692;2022-07-10T03:59:30;1.07;;;0.87;;
1719;SDS011;857;52.872;9.692;2022-07-10T04:01:57;3.53;;;1.17;;
1719;SDS011;857;52.872;9.692;2022-07-10T04:04:25;2.90;;;1.00;;
1719;SDS011;857;52.872;9.692;2022-07-10T04:06:53;2.27;;;0.90;;
1719;SDS011;857;52.872;9.692;2022-07-10T04:09:22;7.60;;;1.23;;
1719;SDS011;857;52.872;9.692;2022-07-10T04:11:50;1.70;;;0.90;;
1719;SDS011;857;52.872;9.692;2022-07-10T04:14:18;1.27;;;0.90;;
1719;SDS011;857;52.872;9.692;2022-07-10T04:16:45;3.13;;;1.00;;
1719;SDS011;857;52.872;9.692;2022-07-10T04:19:13;2.40;;;0.90;;
1719;SDS011;857;52.872;9.692;2022-07-10T04:21:41;2.77;;;0.77;;
1719;SDS011;857;52.872;9.692;2022-07-10T04:24:09;1.40;;;0.90;;
1719;SDS011;857;52.872;9.692;2022-07-10T04:26:38;0.70;;;0.60;;
1719;SDS011;857;52.872;9.692;2022-07-10T04:29:05;2.30;;;1.00;;
1719;SDS011;857;52.872;9.692;2022-07-10T04:31:33;6.00;;;1.17;;
1719;SDS011;857;52.872;9.692;2022-07-10T04:34:01;4.70;;;0.90;;
1719;SDS011;857;52.872;9.692;2022-07-10T04:36:29;3.40;;;1.60;;
1719;SDS011;857;52.872;9.692;2022-07-10T04:38:56;3.37;;;1.00;;
1719;SDS011;857;52.872;9.692;2022-07-10T04:41:24;5.47;;;1.33;;
1719;SDS011;857;52.872;9.692;2022-07-10T04:43:53;2.20;;;1.10;;
1719;SDS011;857;52.872;9.692;2022-07-10T04:46:21;5.13;;;1.30;;
1719;SDS011;857;52.872;9.692;2022-07-10T04:48:48;2.30;;;1.07;;
1719;SDS011;857;52.872;9.692;2022-07-10T04:51:17;3.13;;;1.10;;
1719;SDS011;857;52.872;9.692;2022-07-10T04:53:45;2.47;;;0.97;;
1719;SDS011;857;52.872;9.692;2022-07-10T04:56:12;3.30;;;1.50;;
1719;SDS011;857;52.872;9.692;2022-07-10T04:58:40;3.83;;;1.07;;
1719;SDS011;857;52.872;9.692;2022-07-10T05:01:09;2.00;;;1.07;;
1719;SDS011;857;52.872;9.692;2022-07-10T05:03:37;4.83;;;0.80;;
1719;SDS011;857;52.872;9.692;2022-07-10T05:06:05;1.63;;;1.00;;
1719;SDS011;857;52.872;9.692;2022-07-10T05:08:32;2.70;;;1.23;;
1719;SDS011;857;52.872;9.692;2022-07-10T05:11:00;2.10;;;1.10;;
1719;SDS011;857;52.872;9.692;2022-07-10T05:13:28;2.47;;;0.87;;
1719;SDS011;857;52.872;9.692;2022-07-10T05:15:56;3.43;;;0.80;;
1719;SDS011;857;52.872;9.692;2022-07-10T05:18:25;3.33;;;1.00;;
1719;SDS011;857;52.872;9.692;2022-07-10T05:20:52;1.47;;;1.00;;
1719;SDS011;857;52.872;9.692;2022-07-10T05:23:20;1.17;;;1.00;;
1719;SDS011;857;52.872;9.692;2022-07-10T05:25:48;2.07;;;1.10;;
1719;SDS011;857;52.872;9.692;2022-07-10T05:28:15;7.33;;;1.50;;
1719;SDS011;857;52.872;9.692;2022-07-10T05:30:43;4.93;;;2.00;;
1719;SDS011;857;52.872;9.692;2022-07-10T05:33:11;4.80;;;1.00;;
1719;SDS011;857;52.872;9.692;2022-07-10T05:35:40;6.60;;;2.00;;
1719;SDS011;857;52.872;9.692;2022-07-10T05:38:07;3.07;;;1.00;;
1719;SDS011;857;52.872;9.692;2022-07-10T05:40:35;4.57;;;1.60;;
1719;SDS011;857;52.872;9.692;2022-07-10T05:43:03;3.60;;;1.40;;
1719;SDS011;857;52.872;9.692;2022-07-10T05:45:30;4.87;;;1.60;;
1719;SDS011;857;52.872;9.692;2022-07-10T05:47:58;3.17;;;1.20;;
1719;SDS011;857;52.872;9.692;2022-07-10T05:50:26;5.70;;;1.30;;
1719;SDS011;857;52.872;9.692;2022-07-10T05:52:55;4.20;;;1.67;;
1719;SDS011;857;52.872;9.692;2022-07-10T05:55:23;2.10;;;1.10;;
1719;SDS011;857;52.872;9.692;2022-07-10T05:57:51;1.50;;;0.80;;
1719;SDS011;857;52.872;9.692;2022-07-10T06:00:20;2.27;;;1.23;;
1719;SDS011;857;52.872;9.692;2022-07-10T06:02:47;4.00;;;1.23;;
1719;SDS011;857;52.872;9.692;2022-07-10T06:05:15;4.23;;;1.73;;
1719;SDS011;857;52.872;9.692;2022-07-10T06:07:43;3.70;;;1.50;;
1719;SDS011;857;52.872;9.692;2022-07-10T06:10:12;3.37;;;1.20;;
1719;SDS011;857;52.872;9.692;2022-07-10T06:12:40;3.10;;;1.23;;
1719;SDS011;857;52.872;9.692;2022-07-10T06:15:07;3.00;;;1.43;;
1719;SDS011;857;52.872;9.692;2022-07-10T06:17:35;4.10;;;1.47;;
1719;SDS011;857;52.872;9.692;2022-07-10T06:20:03;3.83;;;2.53;;
1719;SDS011;857;52.872;9.692;2022-07-10T06:24:58;2.27;;;1.47;;
1719;SDS011;857;52.872;9.692;2022-07-10T06:27:27;2.00;;;0.90;;
1719;SDS011;857;52.872;9.692;2022-07-10T06:29:55;7.10;;;1.70;;
1719;SDS011;857;52.872;9.692;2022-07-10T06:32:22;5.53;;;1.97;;
1719;SDS011;857;52.872;9.692;2022-07-10T06:34:50;3.43;;;1.53;;
1719;SDS011;857;52.872;9.692;2022-07-10T06:37:18;2.43;;;1.30;;
1719;SDS011;857;52.872;9.692;2022-07-10T06:39:46;2.77;;;1.03;;
1719;SDS011;857;52.872;9.692;2022-07-10T06:42:14;2.00;;;1.20;;
1719;SDS011;857;52.872;9.692;2022-07-10T06:44:48;3.60;;;2.00;;
1719;SDS011;857;52.872;9.692;2022-07-10T06:47:16;2.33;;;0.90;;
1719;SDS011;857;52.872;9.692;2022-07-10T06:50:02;1.97;;;0.93;;
1719;SDS011;857;52.872;9.692;2022-07-10T06:52:30;3.60;;;1.57;;
1719;SDS011;857;52.872;9.692;2022-07-10T06:54:59;9.93;;;2.23;;
1719;SDS011;857;52.872;9.692;2022-07-10T06:57:27;2.10;;;1.07;;
1719;SDS011;857;52.872;9.692;2022-07-10T06:59:56;2.10;;;1.37;;
1719;SDS011;857;52.872;9.692;2022-07-10T07:02:24;1.37;;;1.20;;
1719;SDS011;857;52.872;9.692;2022-07-10T07:04:51;3.07;;;1.50;;
1719;SDS011;857;52.872;9.692;2022-07-10T07:07:19;4.73;;;2.27;;
1719;SDS011;857;52.872;9.692;2022-07-10T07:09:47;2.97;;;0.93;;
1719;SDS011;857;52.872;9.692;2022-07-10T07:12:16;5.23;;;1.80;;
1719;SDS011;857;52.872;9.692;2022-07-10T07:14:44;4.73;;;2.03;;
1719;SDS011;857;52.872;9.692;2022-07-10T07:17:14;5.20;;;1.90;;
1719;SDS011;857;52.872;9.692;2022-07-10T07:19:47;2.70;;;1.33;;
1719;SDS011;857;52.872;9.692;2022-07-10T07:22:32;2.50;;;1.43;;
1719;SDS011;857;52.872;9.692;2022-07-10T07:25:17;3.23;;;1.97;;
1719;SDS011;857;52.872;9.692;2022-07-10T07:27:45;3.47;;;1.93;;
1719;SDS011;857;52.872;9.692;2022-07-10T07:30:13;5.80;;;2.17;;
1719;SDS011;857;52.872;9.692;2022-07-10T07:32:43;3.13;;;1.47;;
1719;SDS011;857;52.872;9.692;2022-07-10T07:35:11;1.97;;;1.50;;
1719;SDS011;857;52.872;9.692;2022-07-10T07:37:40;5.17;;;2.23;;
1719;SDS011;857;52.872;9.692;2022-07-10T07:40:09;4.50;;;1.77;;
1719;SDS011;857;52.872;9.692;2022-07-10T07:42:37;3.33;;;1.13;;
1719;SDS011;857;52.872;9.692;2022-07-10T07:45:06;2.60;;;1.57;;
1719;SDS011;857;52.872;9.692;2022-07-10T07:47:43;4.17;;;1.30;;
1719;SDS011;857;52.872;9.692;2022-07-10T07:50:12;2.00;;;0.93;;
1719;SDS011;857;52.872;9.692;2022-07-10T07:52:39;7.30;;;2.00;;
1719;SDS011;857;52.872;9.692;2022-07-10T07:55:08;4.77;;;1.80;;
1719;SDS011;857;52.872;9.692;2022-07-10T07:57:36;2.00;;;1.00;;
1719;SDS011;857;52.872;9.692;2022-07-10T08:00:04;1.93;;;1.50;;
1719;SDS011;857;52.872;9.692;2022-07-10T08:02:37;5.90;;;1.67;;
1719;SDS011;857;52.872;9.692;2022-07-10T08:05:07;6.90;;;1.83;;
1719;SDS011;857;52.872;9.692;2022-07-10T08:07:36;8.33;;;2.20;;
1719;SDS011;857;52.872;9.692;2022-07-10T08:10:04;3.87;;;1.10;;
1719;SDS011;857;52.872;9.692;2022-07-10T08:12:32;1.63;;;1.10;;
1719;SDS011;857;52.872;9.692;2022-07-10T08:15:00;3.90;;;1.30;;
1719;SDS011;857;52.872;9.692;2022-07-10T08:17:28;3.07;;;2.33;;
1719;SDS011;857;52.872;9.692;2022-07-10T08:19:56;6.97;;;1.90;;
1719;SDS011;857;52.872;9.692;2022-07-10T08:22:25;6.50;;;2.03;;
1719;SDS011;857;52.872;9.692;2022-07-10T08:24:53;5.43;;;2.10;;
1719;SDS011;857;52.872;9.692;2022-07-10T08:27:22;5.20;;;1.87;;
1719;SDS011;857;52.872;9.692;2022-07-10T08:29:49;8.10;;;2.30;;
1719;SDS011;857;52.872;9.692;2022-07-10T08:32:17;3.67;;;1.57;;
1719;SDS011;857;52.872;9.692;2022-07-10T08:34:45;5.77;;;2.93;;
1719;SDS011;857;52.872;9.692;2022-07-10T08:37:14;2.83;;;1.23;;
1719;SDS011;857;52.872;9.692;2022-07-10T08:39:43;1.43;;;1.20;;
1719;SDS011;857;52.872;9.692;2022-07-10T08:42:10;6.40;;;2.70;;
1719;SDS011;857;52.872;9.692;2022-07-10T08:44:38;8.63;;;2.27;;
1719;SDS011;857;52.872;9.692;2022-07-10T08:47:06;5.93;;;2.27;;
1719;SDS011;857;52.872;9.692;2022-07-10T08:49:34;5.77;;;1.80;;
1719;SDS011;857;52.872;9.692;2022-07-10T08:52:02;1.47;;;1.00;;
1719;SDS011;857;52.872;9.692;2022-07-10T08:54:31;2.10;;;1.13;;
1719;SDS011;857;52.872;9.692;2022-07-10T08:57:01;7.00;;;1.93;;
1719;SDS011;857;52.872;9.692;2022-07-10T08:59:29;2.20;;;1.43;;
1719;SDS011;857;52.872;9.692;2022-07-10T09:01:58;7.90;;;1.93;;
1719;SDS011;857;52.872;9.692;2022-07-10T09:04:26;4.80;;;1.83;;
1719;SDS011;857;52.872;9.692;2022-07-10T09:06:54;5.40;;;1.83;;
1719;SDS011;857;52.872;9.692;2022-07-10T09:09:22;2.87;;;1.30;;
1719;SDS011;857;52.872;9.692;2022-07-10T09:11:54;5.20;;;2.03;;
1719;SDS011;857;52.872;9.692;2022-07-10T09:14:25;5.50;;;1.87;;
1719;SDS011;857;52.872;9.692;2022-07-10T09:16:54;3.17;;;1.70;;
1719;SDS011;857;52.872;9.692;2022-07-10T09:19:22;7.13;;;2.03;;
1719;SDS011;857;52.872;9.692;2022-07-10T09:21:51;7.20;;;2.10;;
1719;SDS011;857;52.872;9.692;2022-07-10T09:24:19;2.30;;;1.57;;
1719;SDS011;857;52.872;9.692;2022-07-10T09:26:57;8.40;;;2.43;;
1719;SDS011;857;52.872;9.692;2022-07-10T09:29:27;3.67;;;1.67;;
1719;SDS011;857;52.872;9.692;2022-07-10T09:31:55;1.93;;;1.20;;
1719;SDS011;857;52.872;9.692;2022-07-10T09:34:36;6.67;;;1.63;;
1719;SDS011;857;52.872;9.692;2022-07-10T09:37:20;4.00;;;1.63;;
1719;SDS011;857;52.872;9.692;2022-07-10T09:39:51;1.97;;;1.17;;
1719;SDS011;857;52.872;9.692;2022-07-10T09:42:32;4.17;;;1.70;;
1719;SDS011;857;52.872;9.692;2022-07-10T09:45:17;1.23;;;1.13;;
1719;SDS011;857;52.872;9.692;2022-07-10T09:47:53;2.60;;;1.03;;
1719;SDS011;857;52.872;9.692;2022-07-10T09:50:22;3.60;;;1.60;;
1719;SDS011;857;52.872;9.692;2022-07-10T09:52:51;1.70;;;1.20;;
1719;SDS011;857;52.872;9.692;2022-07-10T09:55:20;5.40;;;1.27;;
1719;SDS011;857;52.872;9.692;2022-07-10T09:57:51;4.90;;;1.83;;
1719;SDS011;857;52.872;9.692;2022-07-10T10:00:22;4.43;;;2.53;;
1719;SDS011;857;52.872;9.692;2022-07-10T10:02:54;7.73;;;2.07;;
1719;SDS011;857;52.872;9.692;2022-07-10T10:05:28;3.40;;;1.83;;
1719;SDS011;857;52.872;9.692;2022-07-10T10:08:00;3.80;;;1.60;;
1719;SDS011;857;52.872;9.692;2022-07-10T10:10:30;4.67;;;1.90;;
1719;SDS011;857;52.872;9.692;2022-07-10T10:12:59;6.00;;;1.67;;
1719;SDS011;857;52.872;9.692;2022-07-10T10:15:30;6.30;;;1.93;;
1719;SDS011;857;52.872;9.692;2022-07-10T10:17:57;3.87;;;1.97;;
1719;SDS011;857;52.872;9.692;2022-07-10T10:20:26;5.20;;;1.77;;
1719;SDS011;857;52.872;9.692;2022-07-10T10:23:09;6.13;;;1.30;;
1719;SDS011;857;52.872;9.692;2022-07-10T10:25:37;2.90;;;1.40;;
1719;SDS011;857;52.872;9.692;2022-07-10T10:28:05;1.60;;;1.17;;
1719;SDS011;857;52.872;9.692;2022-07-10T10:30:34;7.43;;;1.50;;
1719;SDS011;857;52.872;9.692;2022-07-10T10:33:15;3.33;;;1.60;;
1719;SDS011;857;52.872;9.692;2022-07-10T10:36:06;1.73;;;1.03;;
1719;SDS011;857;52.872;9.692;2022-07-10T10:41:23;3.03;;;1.50;;
1719;SDS011;857;52.872;9.692;2022-07-10T10:46:35;3.47;;;1.30;;
1719;SDS011;857;52.872;9.692;2022-07-10T10:49:20;5.13;;;1.97;;
1719;SDS011;857;52.872;9.692;2022-07-10T10:51:58;2.10;;;1.40;;
1719;SDS011;857;52.872;9.692;2022-07-10T10:54:27;3.67;;;1.53;;
1719;SDS011;857;52.872;9.692;2022-07-10T10:57:10;7.47;;;2.40;;
1719;SDS011;857;52.872;9.692;2022-07-10T10:59:44;3.37;;;1.43;;
1719;SDS011;857;52.872;9.692;2022-07-10T11:02:24;2.70;;;1.43;;
1719;SDS011;857;52.872;9.692;2022-07-10T11:04:58;4.57;;;2.00;;
1719;SDS011;857;52.872;9.692;2022-07-10T11:07:52;6.73;;;3.73;;
1719;SDS011;857;52.872;9.692;2022-07-10T11:10:26;1.70;;;1.43;;
1719;SDS011;857;52.872;9.692;2022-07-10T11:12:57;2.23;;;1.07;;
1719;SDS011;857;52.872;9.692;2022-07-10T11:15:25;3.30;;;1.43;;
1719;SDS011;857;52.872;9.692;2022-07-10T11:17:57;6.37;;;2.00;;
1719;SDS011;857;52.872;9.692;2022-07-10T11:20:24;4.87;;;2.17;;
1719;SDS011;857;52.872;9.692;2022-07-10T11:22:55;4.40;;;1.70;;
1719;SDS011;857;52.872;9.692;2022-07-10T11:25:35;3.30;;;1.73;;
1719;SDS011;857;52.872;9.692;2022-07-10T11:28:08;7.20;;;3.00;;
1719;SDS011;857;52.872;9.692;2022-07-10T11:30:44;1.70;;;1.30;;
1719;SDS011;857;52.872;9.692;2022-07-10T11:33:13;2.67;;;1.73;;
1719;SDS011;857;52.872;9.692;2022-07-10T11:35:43;3.33;;;1.90;;
1719;SDS011;857;52.872;9.692;2022-07-10T11:38:11;3.60;;;1.47;;
1719;SDS011;857;52.872;9.692;2022-07-10T11:40:39;3.67;;;1.60;;
1719;SDS011;857;52.872;9.692;2022-07-10T11:43:07;4.67;;;1.60;;
1719;SDS011;857;52.872;9.692;2022-07-10T11:45:39;4.73;;;1.50;;
1719;SDS011;857;52.872;9.692;2022-07-10T11:48:07;3.83;;;1.70;;
1719;SDS011;857;52.872;9.692;2022-07-10T11:50:36;3.80;;;2.00;;
1719;SDS011;857;52.872;9.692;2022-07-10T11:53:04;5.43;;;1.87;;
1719;SDS011;857;52.872;9.692;2022-07-10T11:55:32;2.50;;;1.70;;
1719;SDS011;857;52.872;9.692;2022-07-10T11:58:15;1.50;;;1.10;;
1719;SDS011;857;52.872;9.692;2022-07-10T12:00:43;2.77;;;2.07;;
1719;SDS011;857;52.872;9.692;2022-07-10T12:03:17;5.03;;;2.10;;
1719;SDS011;857;52.872;9.692;2022-07-10T12:05:47;1.10;;;1.00;;
1719;SDS011;857;52.872;9.692;2022-07-10T12:08:16;2.80;;;1.50;;
1719;SDS011;857;52.872;9.692;2022-07-10T12:10:44;1.57;;;1.47;;
1719;SDS011;857;52.872;9.692;2022-07-10T12:13:13;4.23;;;1.73;;
1719;SDS011;857;52.872;9.692;2022-07-10T12:15:41;4.10;;;1.77;;
1719;SDS011;857;52.872;9.692;2022-07-10T12:18:14;2.77;;;1.53;;
1719;SDS011;857;52.872;9.692;2022-07-10T12:20:42;5.23;;;1.60;;
1719;SDS011;857;52.872;9.692;2022-07-10T12:23:13;2.10;;;1.57;;
1719;SDS011;857;52.872;9.692;2022-07-10T12:25:42;3.10;;;1.50;;
1719;SDS011;857;52.872;9.692;2022-07-10T12:28:10;2.37;;;1.90;;
1719;SDS011;857;52.872;9.692;2022-07-10T12:30:39;4.17;;;1.70;;
1719;SDS011;857;52.872;9.692;2022-07-10T12:33:08;2.40;;;1.20;;
1719;SDS011;857;52.872;9.692;2022-07-10T12:35:46;4.90;;;1.57;;
1719;SDS011;857;52.872;9.692;2022-07-10T12:38:16;4.33;;;1.57;;
1719;SDS011;857;52.872;9.692;2022-07-10T12:40:44;3.93;;;1.83;;
1719;SDS011;857;52.872;9.692;2022-07-10T12:43:12;5.70;;;1.70;;
1719;SDS011;857;52.872;9.692;2022-07-10T12:45:39;3.17;;;1.57;;
1719;SDS011;857;52.872;9.692;2022-07-10T12:48:07;2.50;;;1.43;;
1719;SDS011;857;52.872;9.692;2022-07-10T12:50:49;2.63;;;1.67;;
1719;SDS011;857;52.872;9.692;2022-07-10T12:53:18;2.40;;;1.40;;
1719;SDS011;857;52.872;9.692;2022-07-10T12:55:45;1.80;;;1.30;;
1719;SDS011;857;52.872;9.692;2022-07-10T12:58:13;2.20;;;1.40;;
1719;SDS011;857;52.872;9.692;2022-07-10T13:00:43;1.47;;;1.37;;
1719;SDS011;857;52.872;9.692;2022-07-10T13:03:16;1.90;;;1.30;;
1719;SDS011;857;52.872;9.692;2022-07-10T13:05:44;1.40;;;1.17;;
1719;SDS011;857;52.872;9.692;2022-07-10T13:08:12;2.30;;;1.27;;
1719;SDS011;857;52.872;9.692;2022-07-10T13:10:45;2.63;;;1.40;;
1719;SDS011;857;52.872;9.692;2022-07-10T13:13:12;4.27;;;1.70;;
1719;SDS011;857;52.872;9.692;2022-07-10T13:15:40;7.63;;;1.73;;
1719;SDS011;857;52.872;9.692;2022-07-10T13:18:12;1.40;;;1.30;;
1719;SDS011;857;52.872;9.692;2022-07-10T13:20:40;3.07;;;1.73;;
1719;SDS011;857;52.872;9.692;2022-07-10T13:23:07;3.77;;;1.53;;
1719;SDS011;857;52.872;9.692;2022-07-10T13:25:36;3.50;;;1.67;;
1719;SDS011;857;52.872;9.692;2022-07-10T13:28:05;5.57;;;1.60;;
1719;SDS011;857;52.872;9.692;2022-07-10T13:30:33;5.63;;;1.80;;
1719;SDS011;857;52.872;9.692;2022-07-10T13:33:01;5.07;;;1.90;;
1719;SDS011;857;52.872;9.692;2022-07-10T13:35:29;4.60;;;1.97;;
1719;SDS011;857;52.872;9.692;2022-07-10T13:37:57;3.30;;;1.27;;
1719;SDS011;857;52.872;9.692;2022-07-10T13:40:25;2.83;;;1.30;;
1719;SDS011;857;52.872;9.692;2022-07-10T13:42:53;2.83;;;1.70;;
1719;SDS011;857;52.872;9.692;2022-07-10T13:45:22;2.80;;;1.53;;
1719;SDS011;857;52.872;9.692;2022-07-10T13:47:51;2.40;;;1.57;;
1719;SDS011;857;52.872;9.692;2022-07-10T13:50:20;4.67;;;1.70;;
1719;SDS011;857;52.872;9.692;2022-07-10T13:52:48;3.40;;;1.27;;
1719;SDS011;857;52.872;9.692;2022-07-10T13:55:15;4.73;;;1.93;;
1719;SDS011;857;52.872;9.692;2022-07-10T13:57:43;7.80;;;2.10;;
1719;SDS011;857;52.872;9.692;2022-07-10T14:00:11;4.40;;;1.80;;
1719;SDS011;857;52.872;9.692;2022-07-10T14:02:40;4.73;;;2.10;;
1719;SDS011;857;52.872;9.692;2022-07-10T14:05:08;4.83;;;1.60;;
1719;SDS011;857;52.872;9.692;2022-07-10T14:07:36;7.33;;;1.97;;
1719;SDS011;857;52.872;9.692;2022-07-10T14:10:04;5.90;;;1.50;;
1719;SDS011;857;52.872;9.692;2022-07-10T14:12:32;4.30;;;1.80;;
1719;SDS011;857;52.872;9.692;2022-07-10T14:14:59;5.30;;;1.80;;
1719;SDS011;857;52.872;9.692;2022-07-10T14:17:27;7.20;;;2.40;;
1719;SDS011;857;52.872;9.692;2022-07-10T14:19:56;6.95;;;2.17;;
1719;SDS011;857;52.872;9.692;2022-07-10T14:22:24;11.00;;;2.17;;
1719;SDS011;857;52.872;9.692;2022-07-10T14:24:52;7.37;;;2.50;;
1719;SDS011;857;52.872;9.692;2022-07-10T14:27:20;6.33;;;1.70;;
1719;SDS011;857;52.872;9.692;2022-07-10T14:29:48;31.50;;;9.97;;
1719;SDS011;857;52.872;9.692;2022-07-10T14:32:16;19.83;;;6.03;;
1719;SDS011;857;52.872;9.692;2022-07-10T14:34:44;11.83;;;3.77;;
1719;SDS011;857;52.872;9.692;2022-07-10T14:37:13;17.73;;;4.88;;
1719;SDS011;857;52.872;9.692;2022-07-10T14:39:41;17.63;;;4.40;;
1719;SDS011;857;52.872;9.692;2022-07-10T14:42:08;6.80;;;3.67;;
1719;SDS011;857;52.872;9.692;2022-07-10T14:44:36;10.48;;;3.88;;
1719;SDS011;857;52.872;9.692;2022-07-10T14:47:04;11.43;;;3.77;;
1719;SDS011;857;52.872;9.692;2022-07-10T14:49:31;4.50;;;2.17;;
1719;SDS011;857;52.872;9.692;2022-07-10T14:51:59;8.73;;;2.73;;
1719;SDS011;857;52.872;9.692;2022-07-10T14:54:29;6.00;;;1.93;;
1719;SDS011;857;52.872;9.692;2022-07-10T14:56:57;5.73;;;3.57;;
1719;SDS011;857;52.872;9.692;2022-07-10T14:59:24;9.10;;;3.03;;
1719;SDS011;857;52.872;9.692;2022-07-10T15:01:52;6.47;;;3.33;;
1719;SDS011;857;52.872;9.692;2022-07-10T15:04:20;9.00;;;3.33;;
1719;SDS011;857;52.872;9.692;2022-07-10T15:06:47;7.00;;;2.37;;
1719;SDS011;857;52.872;9.692;2022-07-10T15:09:15;5.27;;;1.97;;
1719;SDS011;857;52.872;9.692;2022-07-10T15:11:44;6.77;;;3.30;;
1719;SDS011;857;52.872;9.692;2022-07-10T15:14:12;6.13;;;3.27;;
1719;SDS011;857;52.872;9.692;2022-07-10T15:16:40;4.33;;;2.10;;
1719;SDS011;857;52.872;9.692;2022-07-10T15:19:08;6.20;;;2.70;;
1719;SDS011;857;52.872;9.692;2022-07-10T15:21:36;7.50;;;3.10;;
1719;SDS011;857;52.872;9.692;2022-07-10T15:24:04;4.97;;;2.87;;
1719;SDS011;857;52.872;9.692;2022-07-10T15:26:32;7.60;;;3.33;;
1719;SDS011;857;52.872;9.692;2022-07-10T15:29:01;7.93;;;3.13;;
1719;SDS011;857;52.872;9.692;2022-07-10T15:31:29;7.30;;;3.60;;
1719;SDS011;857;52.872;9.692;2022-07-10T15:33:57;3.57;;;1.87;;
1719;SDS011;857;52.872;9.692;2022-07-10T15:36:24;3.17;;;1.93;;
1719;SDS011;857;52.872;9.692;2022-07-10T15:38:52;7.97;;;3.20;;
1719;SDS011;857;52.872;9.692;2022-07-10T15:41:20;2.47;;;1.50;;
1719;SDS011;857;52.872;9.692;2022-07-10T15:43:47;8.40;;;3.20;;
1719;SDS011;857;52.872;9.692;2022-07-10T15:46:16;5.83;;;2.27;;
1719;SDS011;857;52.872;9.692;2022-07-10T15:48:44;10.67;;;5.80;;
1719;SDS011;857;52.872;9.692;2022-07-10T15:51:12;16.10;;;6.90;;